createdAt,value
2022-11-05T00:00:26.215Z,12.27
2022-11-05T00:03:13.171Z,8.65
2022-11-05T00:05:41.235Z,6.22
2022-11-05T00:08:08.796Z,5.72
2022-11-05T00:10:37.756Z,3.60
2022-11-05T00:13:08.308Z,3.40
2022-11-05T00:15:35.793Z,3.70
2022-11-05T00:18:03.811Z,3.95
2022-11-05T00:20:33.106Z,4.03
2022-11-05T00:23:01.470Z,4.93
2022-11-05T00:25:29.505Z,4.38
2022-11-05T00:28:01.046Z,3.40
2022-11-05T00:30:29.625Z,2.75
2022-11-05T00:33:01.701Z,3.45
2022-11-05T00:35:29.764Z,3.63
2022-11-05T00:37:58.601Z,3.63
2022-11-05T00:40:26.290Z,3.75
2022-11-05T00:42:53.966Z,3.35
2022-11-05T00:45:21.890Z,3.67
2022-11-05T00:47:49.933Z,5.00
2022-11-05T00:50:17.992Z,3.08
2022-11-05T00:52:49.212Z,4.05
2022-11-05T00:55:18.255Z,6.03
2022-11-05T00:57:46.001Z,4.43
2022-11-05T01:00:15.137Z,5.32
2022-11-05T01:02:42.587Z,4.72
2022-11-05T01:05:10.522Z,4.05
2022-11-05T01:07:37.694Z,4.55
2022-11-05T01:10:06.601Z,6.82
2022-11-05T01:12:35.735Z,5.78
2022-11-05T01:15:03.767Z,3.90
2022-11-05T01:17:31.076Z,4.47
2022-11-05T01:19:58.661Z,5.45
2022-11-05T01:22:26.084Z,3.25
2022-11-05T01:24:54.287Z,3.70
2022-11-05T01:27:21.878Z,3.80
2022-11-05T01:29:51.031Z,3.35
2022-11-05T01:32:18.329Z,3.38
2022-11-05T01:34:46.179Z,4.03
2022-11-05T01:37:13.447Z,3.78
2022-11-05T01:39:41.056Z,4.70
2022-11-05T01:42:15.326Z,6.45
2022-11-05T01:44:54.080Z,4.68
2022-11-05T01:47:29.283Z,4.75
2022-11-05T01:50:01.141Z,6.63
2022-11-05T01:52:30.030Z,3.72
2022-11-05T01:55:00.414Z,4.03
2022-11-05T01:57:28.838Z,3.70
2022-11-05T02:00:00.156Z,3.45
2022-11-05T02:02:28.196Z,3.20
2022-11-05T02:05:00.669Z,4.72
2022-11-05T02:07:28.955Z,3.58
2022-11-05T02:10:01.362Z,3.53
2022-11-05T02:12:29.916Z,3.38
2022-11-05T02:14:59.500Z,2.78
2022-11-05T02:17:45.224Z,3.35
2022-11-05T02:20:25.033Z,2.72
2022-11-05T02:23:14.336Z,4.43
2022-11-05T02:26:18.592Z,3.45
2022-11-05T02:29:18.949Z,3.47
2022-11-05T02:31:56.032Z,3.30
2022-11-05T02:34:29.062Z,3.10
2022-11-05T02:37:02.758Z,3.30
2022-11-05T02:39:41.675Z,3.72
2022-11-05T02:42:20.438Z,2.30
2022-11-05T02:44:53.114Z,4.00
2022-11-05T02:47:27.082Z,2.90
2022-11-05T02:50:03.250Z,3.05
2022-11-05T02:52:38.272Z,2.53
2022-11-05T02:55:22.455Z,2.45
2022-11-05T02:57:58.395Z,2.17
2022-11-05T03:00:59.243Z,2.13
2022-11-05T03:03:34.751Z,2.22
2022-11-05T03:06:15.715Z,2.88
2022-11-05T03:09:07.231Z,4.65
2022-11-05T03:11:41.993Z,2.90
2022-11-05T03:14:20.740Z,2.80
2022-11-05T03:16:52.814Z,2.70
2022-11-05T03:19:30.867Z,2.45
2022-11-05T03:22:02.785Z,2.63
2022-11-05T03:24:34.489Z,2.75
2022-11-05T03:27:10.878Z,2.63
2022-11-05T03:29:44.781Z,2.58
2022-11-05T03:32:14.814Z,2.30
2022-11-05T03:34:48.345Z,2.65
2022-11-05T03:37:20.230Z,1.92
2022-11-05T03:39:51.105Z,2.50
2022-11-05T03:42:24.229Z,2.72
2022-11-05T03:44:56.800Z,2.53
2022-11-05T03:47:29.998Z,2.75
2022-11-05T03:50:07.314Z,2.05
2022-11-05T03:52:40.225Z,3.38
2022-11-05T03:55:08.203Z,7.68
2022-11-05T03:57:40.747Z,1.95
2022-11-05T04:00:10.765Z,3.38
2022-11-05T04:02:38.987Z,3.22
2022-11-05T04:05:08.639Z,2.50
2022-11-05T04:07:35.911Z,3.35
2022-11-05T04:10:03.830Z,3.05
2022-11-05T04:12:31.976Z,3.10
2022-11-05T04:14:59.312Z,4.00
2022-11-05T04:17:27.738Z,2.80
2022-11-05T04:19:55.498Z,3.45
2022-11-05T04:22:25.390Z,3.42
2022-11-05T04:24:53.198Z,2.58
2022-11-05T04:27:20.548Z,3.00
2022-11-05T04:29:48.549Z,3.33
2022-11-05T04:32:15.931Z,3.28
2022-11-05T04:34:43.867Z,3.92
2022-11-05T04:37:11.157Z,2.90
2022-11-05T04:39:40.193Z,3.30
2022-11-05T04:42:07.469Z,3.40
2022-11-05T04:44:35.750Z,3.45
2022-11-05T04:47:02.986Z,4.50
2022-11-05T04:49:30.650Z,4.10
2022-11-05T04:51:57.860Z,5.18
2022-11-05T04:54:25.513Z,3.40
2022-11-05T04:56:54.255Z,3.83
2022-11-05T04:59:21.917Z,3.05
2022-11-05T05:01:51.692Z,3.67
2022-11-05T05:04:19.371Z,3.33
2022-11-05T05:06:46.745Z,3.13
2022-11-05T05:09:15.100Z,3.97
2022-11-05T05:11:42.505Z,3.17
2022-11-05T05:14:11.694Z,3.38
2022-11-05T05:16:38.953Z,3.13
2022-11-05T05:19:06.499Z,3.40
2022-11-05T05:21:34.013Z,5.60
2022-11-05T05:24:01.465Z,4.30
2022-11-05T05:26:29.471Z,2.83
2022-11-05T05:28:57.078Z,2.85
2022-11-05T05:31:26.182Z,3.60
2022-11-05T05:33:53.911Z,3.15
2022-11-05T05:36:22.438Z,3.63
2022-11-05T05:38:49.963Z,3.42
2022-11-05T05:41:17.808Z,3.08
2022-11-05T05:43:47.589Z,4.07
2022-11-05T05:46:17.584Z,2.70
2022-11-05T05:48:49.849Z,2.70
2022-11-05T05:51:18.834Z,3.90
2022-11-05T05:53:46.323Z,10.57
2022-11-05T05:56:14.386Z,3.45
2022-11-05T05:58:41.923Z,3.45
2022-11-05T06:01:18.573Z,3.17
2022-11-05T06:03:48.880Z,3.28
2022-11-05T06:06:18.278Z,3.42
2022-11-05T06:08:45.639Z,3.70
2022-11-05T06:11:13.559Z,4.00
2022-11-05T06:13:41.091Z,4.55
2022-11-05T06:16:09.632Z,2.88
2022-11-05T06:18:37.671Z,3.42
2022-11-05T06:21:08.737Z,4.43
2022-11-05T06:23:37.879Z,3.90
2022-11-05T06:26:07.501Z,3.78
2022-11-05T06:28:35.823Z,3.35
2022-11-05T06:31:04.565Z,3.92
2022-11-05T06:33:31.800Z,4.40
2022-11-05T06:36:00.634Z,4.07
2022-11-05T06:38:32.768Z,7.13
2022-11-05T06:41:05.746Z,3.65
2022-11-05T06:43:36.757Z,4.68
2022-11-05T06:46:05.802Z,3.70
2022-11-05T06:48:34.957Z,4.55
2022-11-05T06:51:03.366Z,5.55
2022-11-05T06:53:32.584Z,5.68
2022-11-05T06:56:02.676Z,4.40
2022-11-05T06:58:30.264Z,4.25
2022-11-05T07:01:01.184Z,5.15
2022-11-05T07:03:29.101Z,5.38
2022-11-05T07:06:15.054Z,5.05
2022-11-05T07:08:43.878Z,5.95
2022-11-05T07:11:11.587Z,6.07
2022-11-05T07:13:39.068Z,6.43
2022-11-05T07:16:07.557Z,5.38
2022-11-05T07:18:34.779Z,5.70
2022-11-05T07:21:03.062Z,5.55
2022-11-05T07:23:30.477Z,5.70
2022-11-05T07:25:59.975Z,5.75
2022-11-05T07:28:27.345Z,6.05
2022-11-05T07:30:55.360Z,6.75
2022-11-05T07:33:22.859Z,6.78
2022-11-05T07:35:50.760Z,6.55
2022-11-05T07:38:17.951Z,5.95
2022-11-05T07:40:45.641Z,6.82
2022-11-05T07:43:14.699Z,6.70
2022-11-05T07:45:42.602Z,6.78
2022-11-05T07:48:10.121Z,5.15
2022-11-05T07:50:38.257Z,5.82
2022-11-05T07:53:07.404Z,6.75
2022-11-05T07:55:35.428Z,5.53
2022-11-05T07:58:03.496Z,6.57
2022-11-05T08:00:33.528Z,8.18
2022-11-05T08:03:07.894Z,4.95
2022-11-05T08:05:38.211Z,5.00
2022-11-05T08:08:07.181Z,5.05
2022-11-05T08:10:35.491Z,5.43
2022-11-05T08:13:03.297Z,7.95
2022-11-05T08:15:33.420Z,6.22
2022-11-05T08:18:01.470Z,9.88
2022-11-05T08:20:32.329Z,5.65
2022-11-05T08:22:59.910Z,8.70
2022-11-05T08:25:28.221Z,6.68
2022-11-05T08:27:56.687Z,4.80
2022-11-05T08:30:25.600Z,8.35
2022-11-05T08:32:58.947Z,5.80
2022-11-05T08:35:28.145Z,7.15
2022-11-05T08:37:57.454Z,5.85
2022-11-05T08:40:25.401Z,7.38
2022-11-05T08:42:53.274Z,5.45
2022-11-05T08:45:21.347Z,4.53
2022-11-05T08:47:48.860Z,5.45
2022-11-05T08:50:18.178Z,4.85
2022-11-05T08:52:45.343Z,4.47
2022-11-05T08:55:13.146Z,4.28
2022-11-05T08:57:40.405Z,6.25
2022-11-05T09:00:09.950Z,5.25
2022-11-05T09:02:37.646Z,4.57
2022-11-05T09:05:05.911Z,4.47
2022-11-05T09:07:34.850Z,4.90
2022-11-05T09:10:02.527Z,6.78
2022-11-05T09:12:29.749Z,5.10
2022-11-05T09:14:57.794Z,3.92
2022-11-05T09:17:25.455Z,3.35
2022-11-05T09:19:53.356Z,4.05
2022-11-05T09:22:20.581Z,4.05
2022-11-05T09:24:49.906Z,6.13
2022-11-05T09:27:17.183Z,3.85
2022-11-05T09:29:44.822Z,4.53
2022-11-05T09:32:12.345Z,4.30
2022-11-05T09:34:40.094Z,5.28
2022-11-05T09:37:07.470Z,5.88
2022-11-05T09:39:35.395Z,3.75
2022-11-05T09:42:08.477Z,5.28
2022-11-05T09:44:42.671Z,4.00
2022-11-05T09:47:15.148Z,4.32
2022-11-05T09:49:46.522Z,6.00
2022-11-05T09:52:18.866Z,4.90
2022-11-05T09:54:46.754Z,7.10
2022-11-05T09:57:19.118Z,3.33
2022-11-05T09:59:50.763Z,6.75
2022-11-05T10:02:21.045Z,4.78
2022-11-05T10:04:51.425Z,5.38
2022-11-05T10:07:23.695Z,6.40
2022-11-05T10:09:56.446Z,5.25
2022-11-05T10:12:31.773Z,4.25
2022-11-05T10:15:10.579Z,4.60
2022-11-05T10:17:40.920Z,5.78
2022-11-05T10:20:16.292Z,7.20
2022-11-05T10:22:49.272Z,5.15
2022-11-05T10:25:20.112Z,5.40
2022-11-05T10:27:52.161Z,4.60
2022-11-05T10:30:20.822Z,5.78
2022-11-05T10:32:49.589Z,4.68
2022-11-05T10:35:19.892Z,7.88
2022-11-05T10:37:47.732Z,6.05
2022-11-05T10:40:22.948Z,8.00
2022-11-05T10:43:02.063Z,6.43
2022-11-05T10:45:37.255Z,10.38
2022-11-05T10:48:25.475Z,6.57
2022-11-05T10:50:53.859Z,6.43
2022-11-05T10:53:27.116Z,6.20
2022-11-05T10:55:54.733Z,6.03
2022-11-05T10:58:27.444Z,8.98
2022-11-05T11:01:08.396Z,4.65
2022-11-05T11:03:41.466Z,7.63
2022-11-05T11:06:20.311Z,9.52
2022-11-05T11:08:49.390Z,7.38
2022-11-05T11:11:27.907Z,7.35
2022-11-05T11:14:18.494Z,5.63
2022-11-05T11:16:48.491Z,6.82
2022-11-05T11:19:26.417Z,5.03
2022-11-05T11:22:19.204Z,5.30
2022-11-05T11:24:49.017Z,6.40
2022-11-05T11:27:21.294Z,8.77
2022-11-05T11:29:55.254Z,6.45
2022-11-05T11:32:27.585Z,8.20
2022-11-05T11:34:56.082Z,5.82
2022-11-05T11:37:28.238Z,7.68
2022-11-05T11:40:00.042Z,6.63
2022-11-05T11:45:01.576Z,7.00
2022-11-05T11:49:58.030Z,11.15
2022-11-05T11:52:29.780Z,8.60
2022-11-05T11:55:20.083Z,8.38
2022-11-05T11:57:49.890Z,5.45
2022-11-05T12:00:20.579Z,5.70
2022-11-05T12:03:05.410Z,6.82
2022-11-05T12:05:55.040Z,8.07
2022-11-05T12:08:36.407Z,7.38
2022-11-05T12:11:09.688Z,7.50
2022-11-05T12:13:58.468Z,7.30
2022-11-05T12:16:50.896Z,6.18
2022-11-05T12:19:31.946Z,4.93
2022-11-05T12:22:05.829Z,5.25
2022-11-05T12:25:18.105Z,4.55
2022-11-05T12:28:01.646Z,6.88
2022-11-05T12:30:37.459Z,6.32
2022-11-05T12:33:25.859Z,8.93
2022-11-05T12:36:06.813Z,7.45
2022-11-05T12:38:55.719Z,8.05
2022-11-05T12:41:28.039Z,10.27
2022-11-05T12:44:13.610Z,7.43
2022-11-05T12:46:49.437Z,4.50
2022-11-05T12:52:26.660Z,5.35
2022-11-05T12:55:01.616Z,6.60
2022-11-05T12:57:31.234Z,8.10
2022-11-05T13:00:05.904Z,7.35
2022-11-05T13:02:40.861Z,7.18
2022-11-05T13:05:16.663Z,11.43
2022-11-05T13:07:53.551Z,7.45
2022-11-05T13:10:28.331Z,6.60
2022-11-05T13:13:02.600Z,8.02
2022-11-05T13:15:34.073Z,8.43
2022-11-05T13:18:05.632Z,8.63
2022-11-05T13:20:37.713Z,7.55
2022-11-05T13:23:16.996Z,12.82
2022-11-05T13:25:51.244Z,7.68
2022-11-05T13:28:26.799Z,9.63
2022-11-05T13:31:00.361Z,7.10
2022-11-05T13:33:32.310Z,7.68
2022-11-05T13:36:05.367Z,9.75
2022-11-05T13:38:38.282Z,7.75
2022-11-05T13:41:21.661Z,6.15
2022-11-05T13:44:15.465Z,10.32
2022-11-05T13:47:02.816Z,6.15
2022-11-05T13:49:57.239Z,6.55
2022-11-05T13:52:43.401Z,8.27
2022-11-05T13:58:47.295Z,7.07
2022-11-05T14:01:37.612Z,7.22
2022-11-05T14:04:06.124Z,9.10
2022-11-05T14:06:36.518Z,9.32
2022-11-05T14:09:08.524Z,8.02
2022-11-05T14:11:38.336Z,8.05
2022-11-05T14:14:15.816Z,8.60
2022-11-05T14:16:50.975Z,16.50
2022-11-05T14:19:50.038Z,13.13
2022-11-05T14:22:40.876Z,8.18
2022-11-05T14:25:59.981Z,8.20
2022-11-05T14:28:52.121Z,8.05
2022-11-05T14:34:46.215Z,10.57
2022-11-05T14:37:23.719Z,8.77
2022-11-05T14:39:53.462Z,8.57
2022-11-05T14:42:24.728Z,7.72
2022-11-05T14:44:59.422Z,7.00
2022-11-05T14:47:32.343Z,7.45
2022-11-05T14:50:07.489Z,5.53
2022-11-05T14:52:35.002Z,8.45
2022-11-05T14:55:03.821Z,8.05
2022-11-05T14:58:08.762Z,6.15
2022-11-05T15:00:46.085Z,7.43
2022-11-05T15:03:58.103Z,7.35
2022-11-05T15:06:30.003Z,10.77
2022-11-05T15:09:13.308Z,5.82
2022-11-05T15:11:58.822Z,9.90
2022-11-05T15:17:01.455Z,7.85
2022-11-05T15:19:31.740Z,6.10
2022-11-05T15:22:06.001Z,8.73
2022-11-05T15:24:35.169Z,5.70
2022-11-05T15:27:15.521Z,6.63
2022-11-05T15:29:43.006Z,9.45
2022-11-05T15:32:16.684Z,9.90
2022-11-05T15:34:51.792Z,8.85
2022-11-05T15:37:26.107Z,7.10
2022-11-05T15:39:54.805Z,7.93
2022-11-05T15:42:24.296Z,16.17
2022-11-05T15:44:52.723Z,12.52
2022-11-05T15:47:23.785Z,14.45
2022-11-05T15:49:54.281Z,13.88
2022-11-05T15:52:24.775Z,8.30
2022-11-05T15:55:10.607Z,13.68
2022-11-05T15:57:46.440Z,14.38
2022-11-05T16:00:19.300Z,12.90
2022-11-05T16:02:54.547Z,10.60
2022-11-05T16:05:22.551Z,10.60
2022-11-05T16:07:51.738Z,10.98
2022-11-05T16:10:23.084Z,8.90
2022-11-05T16:12:51.334Z,11.73
2022-11-05T16:15:22.150Z,9.77
2022-11-05T16:17:53.755Z,12.90
2022-11-05T16:20:25.159Z,18.55
2022-11-05T16:22:57.671Z,13.27
2022-11-05T16:25:37.932Z,13.68
2022-11-05T16:28:18.486Z,12.05
2022-11-05T16:30:53.496Z,14.05
2022-11-05T16:33:21.707Z,17.98
2022-11-05T16:35:49.959Z,17.30
2022-11-05T16:38:20.512Z,16.23
2022-11-05T16:40:47.805Z,13.90
2022-11-05T16:43:19.380Z,17.27
2022-11-05T16:45:46.641Z,15.35
2022-11-05T16:48:16.230Z,20.83
2022-11-05T16:50:44.823Z,22.10
2022-11-05T16:53:13.448Z,22.08
2022-11-05T16:55:43.904Z,34.58
2022-11-05T16:58:19.514Z,37.85
2022-11-05T17:00:47.689Z,39.28
2022-11-05T17:03:15.723Z,21.65
2022-11-05T17:05:43.026Z,23.23
2022-11-05T17:08:11.113Z,23.30
2022-11-05T17:10:39.085Z,27.85
2022-11-05T17:13:10.210Z,22.95
2022-11-05T17:15:37.663Z,21.38
2022-11-05T17:18:06.353Z,26.65
2022-11-05T17:20:40.721Z,22.48
2022-11-05T17:23:10.986Z,22.30
2022-11-05T17:25:39.317Z,19.75
2022-11-05T17:28:09.549Z,11.38
2022-11-05T17:30:40.355Z,15.57
2022-11-05T17:33:11.331Z,13.90
2022-11-05T17:35:39.609Z,14.75
2022-11-05T17:38:08.040Z,23.00
2022-11-05T17:40:36.489Z,26.88
2022-11-05T17:43:04.875Z,21.50
2022-11-05T17:45:34.324Z,21.45
2022-11-05T17:48:01.962Z,16.02
2022-11-05T17:50:29.393Z,14.23
2022-11-05T17:52:57.115Z,14.48
2022-11-05T17:55:24.651Z,14.25
2022-11-05T17:57:53.064Z,13.75
2022-11-05T18:00:22.845Z,16.27
2022-11-05T18:02:53.422Z,15.00
2022-11-05T18:05:22.220Z,13.00
2022-11-05T18:07:51.350Z,18.52
2022-11-05T18:10:18.948Z,15.13
2022-11-05T18:12:47.034Z,17.10
2022-11-05T18:15:15.211Z,14.65
2022-11-05T18:17:43.728Z,16.70
2022-11-05T18:20:18.656Z,19.90
2022-11-05T18:22:50.094Z,15.18
2022-11-05T18:25:18.081Z,12.40
2022-11-05T18:27:47.478Z,12.68
2022-11-05T18:30:14.838Z,14.75
2022-11-05T18:32:43.682Z,16.10
2022-11-05T18:35:13.356Z,13.50
2022-11-05T18:37:41.373Z,16.83
2022-11-05T18:40:09.892Z,17.85
2022-11-05T18:42:38.185Z,11.68
2022-11-05T18:45:06.622Z,15.05
2022-11-05T18:47:34.604Z,17.88
2022-11-05T18:50:02.808Z,10.02
2022-11-05T18:52:32.776Z,16.35
2022-11-05T18:55:00.098Z,14.65
2022-11-05T18:57:28.597Z,23.50
2022-11-05T18:59:56.130Z,15.60
2022-11-05T19:02:24.018Z,11.55
2022-11-05T19:05:22.120Z,15.95
2022-11-05T19:07:40.688Z,18.85
2022-11-05T19:10:09.528Z,15.40
2022-11-05T19:12:37.553Z,15.27
2022-11-05T19:15:05.542Z,15.48
2022-11-05T19:17:33.799Z,14.30
2022-11-05T19:20:01.505Z,14.13
2022-11-05T19:22:29.310Z,19.75
2022-11-05T19:24:58.188Z,17.75
2022-11-05T19:27:26.367Z,17.95
2022-11-05T19:29:53.854Z,15.45
2022-11-05T19:32:21.933Z,16.83
2022-11-05T19:34:49.648Z,14.82
2022-11-05T19:37:17.580Z,14.45
2022-11-05T19:39:44.818Z,20.73
2022-11-05T19:42:14.232Z,15.35
2022-11-05T19:44:41.801Z,13.52
2022-11-05T19:47:09.956Z,13.65
2022-11-05T19:49:37.251Z,14.48
2022-11-05T19:52:05.329Z,15.32
2022-11-05T19:54:32.868Z,13.23
2022-11-05T19:57:00.457Z,16.33
2022-11-05T19:59:29.294Z,16.50
2022-11-05T20:01:57.209Z,11.10
2022-11-05T20:04:25.138Z,18.60
2022-11-05T20:06:53.117Z,16.45
2022-11-05T20:09:22.258Z,10.70
2022-11-05T20:11:52.368Z,15.32
2022-11-05T20:14:19.850Z,18.05
2022-11-05T20:16:49.554Z,16.15
2022-11-05T20:19:19.061Z,18.30
2022-11-05T20:21:47.267Z,18.10
2022-11-05T20:24:22.337Z,16.85
2022-11-05T20:26:52.179Z,18.15
2022-11-05T20:29:19.536Z,18.92
2022-11-05T20:31:49.094Z,19.73
2022-11-05T20:34:16.449Z,22.75
2022-11-05T20:36:44.151Z,19.45
2022-11-05T20:39:11.484Z,24.40
2022-11-05T20:41:39.230Z,19.40
2022-11-05T20:44:06.660Z,23.30
2022-11-05T20:46:34.506Z,18.25
2022-11-05T20:49:03.208Z,17.80
2022-11-05T20:51:30.953Z,21.20
2022-11-05T20:53:59.873Z,21.95
2022-11-05T20:56:30.666Z,24.20
2022-11-05T20:58:59.677Z,25.27
2022-11-05T21:02:01.380Z,23.33
2022-11-05T21:04:30.231Z,22.48
2022-11-05T21:06:57.888Z,20.05
2022-11-05T21:09:25.434Z,15.25
2022-11-05T21:11:53.141Z,15.90
2022-11-05T21:14:20.585Z,16.65
2022-11-05T21:16:48.391Z,13.68
2022-11-05T21:19:15.757Z,14.52
2022-11-05T21:21:44.966Z,17.42
2022-11-05T21:24:12.274Z,17.02
2022-11-05T21:26:39.963Z,19.08
2022-11-05T21:29:07.262Z,19.85
2022-11-05T21:31:36.063Z,16.65
2022-11-05T21:34:04.046Z,22.25
2022-11-05T21:36:31.891Z,19.92
2022-11-05T21:39:00.519Z,18.90
2022-11-05T21:41:28.223Z,19.38
2022-11-05T21:43:55.383Z,17.77
2022-11-05T21:46:23.285Z,14.77
2022-11-05T21:48:50.584Z,18.13
2022-11-05T21:51:18.269Z,14.77
2022-11-05T21:53:45.486Z,15.02
2022-11-05T21:56:18.999Z,12.05
2022-11-05T21:58:46.853Z,15.07
2022-11-05T22:01:14.239Z,11.38
2022-11-05T22:03:41.992Z,11.20
2022-11-05T22:06:09.359Z,12.88
2022-11-05T22:08:37.086Z,12.00
2022-11-05T22:11:04.544Z,14.10
2022-11-05T22:13:33.607Z,14.57
2022-11-05T22:16:01.072Z,16.15
2022-11-05T22:18:28.821Z,16.25
2022-11-05T22:20:56.072Z,19.80
2022-11-05T22:23:23.783Z,17.50
2022-11-05T22:25:58.009Z,15.57
2022-11-05T22:28:25.622Z,17.45
2022-11-05T22:30:54.331Z,18.13
2022-11-05T22:33:21.990Z,19.27
2022-11-05T22:35:49.335Z,22.95
2022-11-05T22:38:17.203Z,17.17
2022-11-05T22:40:44.627Z,22.30
2022-11-05T22:43:12.225Z,30.48
2022-11-05T22:45:39.432Z,18.38
2022-11-05T22:48:08.950Z,21.45
2022-11-05T22:50:36.286Z,19.00
2022-11-05T22:53:03.997Z,20.92
2022-11-05T22:55:31.440Z,19.63
2022-11-05T22:57:59.327Z,22.30
2022-11-05T23:00:34.887Z,23.02
2022-11-05T23:03:03.659Z,17.95
2022-11-05T23:05:32.604Z,17.67
2022-11-05T23:08:00.292Z,12.88
2022-11-05T23:10:27.640Z,13.45
2022-11-05T23:12:55.237Z,13.18
2022-11-05T23:15:23.294Z,9.70
2022-11-05T23:17:50.591Z,12.10
2022-11-05T23:20:20.005Z,12.60
2022-11-05T23:22:49.142Z,11.60
2022-11-05T23:25:18.711Z,13.55
2022-11-05T23:27:49.593Z,11.77
2022-11-05T23:30:18.925Z,15.02
2022-11-05T23:32:47.059Z,14.35
2022-11-05T23:35:14.577Z,12.73
2022-11-05T23:37:42.428Z,25.60
2022-11-05T23:40:14.222Z,11.60
2022-11-05T23:42:42.239Z,14.00
2022-11-05T23:45:14.436Z,31.02
2022-11-05T23:47:43.157Z,30.35
2022-11-05T23:50:10.363Z,18.02
2022-11-05T23:52:38.377Z,40.50
2022-11-05T23:55:06.038Z,13.85
2022-11-05T23:57:35.263Z,18.58
